Weather observations for the past three days for
Land O' Lakes, Kings Land O' Lakes Airport
Metric (Imperial)
Date Time (cdt) Wind (kph) Vis. (km) Weather Sky Cond. Temperature (ºC) Relative Humidity Wind Chill (°C) Heat Index (°C) Pressure Precipitation (cm)
Air Dwpt 6 hour altimeter (cm) sea level (mb) 1 hr 3 hr 6 hr
Max. Min.
04 19:55 E 9 16.09 Overcast OVC004 20.8 20.1 96% 76.3 0.0
04 19:35 E 13 16.09 Overcast OVC004 21 20.1 95% 76.28 0.0
04 19:15 E 11 16.09 Overcast OVC004 21.2 20.2 94% 76.3 0.0
04 18:55 E 9 16.09 Overcast OVC004 21.5 20.5 24.7 21.5 94% 76.28 0.0
04 18:35 E 9 16.09 Overcast OVC004 21.7 20.6 94% 76.28 0.0
04 18:15 E 7 8.05 Fog/Mist OVC004 21.6 21 96% 76.28 0.0
04 17:55 E 13 6.44 Fog/Mist OVC004 21.8 20.9 95% 76.25 0.0
04 17:35 E 9 6.44 Fog/Mist OVC004 22.2 21.2 94% 76.25 0.0
04 17:15 E 9 16.09 Overcast OVC006 22.8 21.2 91% 76.23 0.0
04 16:55 NE 7 16.09 Overcast OVC008 23 21 89% 76.2 0.0
04 16:35 E 6 16.09 Overcast OVC008 23.1 21 88% 76.23 0.0
04 16:15 E 7 16.09 Overcast OVC010 23.6 21 85% 76.2 0.0
04 15:55 E 6 16.09 Overcast OVC012 24.1 20.9 82% 24 76.2 0.0
04 15:35 E 9 16.09 Overcast OVC012 24.5 20.9 80% 25 76.2 0.0
04 15:15 E 6 16.09 Overcast OVC014 24.5 20.7 79% 25 76.17 0.0
04 14:55 E 9 16.09 Overcast OVC012 24.6 20.6 78% 25 76.17 0.0
04 14:35 NE 7 16.09 Overcast OVC012 24.6 20.6 78% 25 76.2 0.0
04 14:15 E 9 16.09 Overcast OVC012 24.5 20.6 79% 25 76.17 0.0
04 13:55 E 7 16.09 Overcast OVC012 24.5 20.5 78% 25 76.17 0.0
04 13:35 Calm 16.09 Overcast OVC010 24 20.5 81% 24 76.17 0.0
04 13:15 Calm 16.09 Overcast OVC010 23.9 20.4 81% 24 76.2 0.0
04 12:55 Calm 16.09 Overcast OVC010 23.7 20.1 24 19 80% 76.17 0.0
04 12:35 S 6 16.09 Overcast OVC008 23.5 20.2 82% 76.17 0.0
04 12:15 S 6 16.09 Overcast OVC008 22.5 19.8 85% 76.2 0.0
04 11:55 SE 6 16.09 Overcast OVC006 22.5 19.8 85% 76.2 0.0
04 11:35 E 6 16.09 Overcast OVC006 22.4 19.6 84% 76.2 0.0
04 11:15 SE 7 16.09 Overcast OVC006 21.6 19.4 87% 76.17 0.0
04 10:55 E 7 16.09 Overcast OVC004 21.1 19.1 88% 76.17 0.0
04 10:35 SE 7 16.09 Overcast OVC004 20.6 19 91% 76.17 0.0
04 10:15 SE 13 16.09 Overcast OVC004 20.2 18.7 91% 76.2 0.0
04 09:55 SE 11 16.09 Overcast OVC004 20 18.5 91% 76.2 0.0
04 09:35 SE 11 16.09 Overcast OVC004 19.8 18.5 92% 76.17 0.0
04 09:15 SE 7 8.05 Fog/Mist OVC006 19.4 18.5 95% 76.17 0.0
04 08:55 E 11 8.05 Fog/Mist OVC006 19 18.3 96% 76.17 0.0
04 08:35 SE 13 8.05 Fog/Mist OVC006 19.1 18.2 95% 76.17 0.0
04 08:15 E 11 11.27 Overcast OVC006 19.2 18.4 95% 76.15 0.0
04 07:55 SE 9 11.27 Overcast OVC006 19.4 18.5 95% 76.12 0.0
04 07:35 SE 7 16.09 Overcast OVC006 19.5 18.3 93% 76.12 0.0
04 07:15 SE 11 16.09 Overcast OVC008 19.8 18.4 92% 76.07 0.0
04 06:55 SE 13 16.09 Overcast OVC008 20 18.6 21.5 20 92% 76.07 0.0
04 06:35 E 11 16.09 Overcast OVC008 20.1 18.7 92% 76.07 0.0
04 06:15 SE 11 16.09 Overcast OVC010 20.5 19 91% 76.1 0.0
04 05:55 E 13 16.09 Overcast BKN010 OVC034 20.8 18.8 88% 76.07 0.0
04 05:35 SE 7 16.09 Overcast SCT012 OVC036 21.1 18.7 86% 76.12 0.0
04 05:15 S 9 16.09 Overcast SCT014 OVC039 21.2 18.5 85% 76.1 0.0
04 04:55 SE 15 16.09 Overcast BKN014 OVC041 21.2 18 82% 76.05 0.0
04 04:35 SE 6 16.09 Overcast BKN014 OVC043 21.4 17.6 79% 76.12 0.0
04 04:15 SE 15 16.09 Overcast BKN014 OVC041 21.5 17.3 77% 76.12 0.0
04 03:55 SE 11 16.09 Overcast SCT016 OVC041 21.2 17.5 80% 76.12 0.0
04 03:35 E 9 16.09 Overcast BKN016 OVC043 21.1 17.1 78% 76.1 0.0
04 03:15 SE 13 16.09 Overcast SCT016 OVC047 21.2 17.5 80% 76.07 0.0
04 02:55 E 13 16.09 Light Rain SCT016 OVC047 21.5 17.7 79% 76.12 0.0
04 02:35 SE 19 16.09 Overcast BKN016 OVC047 21.2 17.5 80% 76.1 0.0
04 02:15 E 17 16.09 Overcast OVC016 21.1 17.4 80% 76.12 0.0
04 01:55 N 17 4.83 Overcast with Haze BKN016 OVC049 21.2 18 82% 76.23 0.0
04 01:35 SE 13 4.83 Overcast with Haze SCT012 OVC049 21.1 18 83% 76.12 0.0
04 01:15 SE 9 4.83 Fog/Mist BKN012 OVC060 21.1 18.6 86% 76.12 0.0
04 00:55 E 13 3.22 Fog/Mist OVC012 21.1 19.1 25 21.1 88% 76.12 0.0
04 00:35 E 7 4.83 Fog/Mist OVC014 21.1 19.5 91% 76.12 0.0
04 00:15 SE 7 16.09 Light Rain OVC014 21.3 19.5 90% 76.12 0.0
03 23:55 SE 11 16.09 Overcast OVC014 21.7 19.2 86% 76.15 0.0
03 23:35 E 9 16.09 Overcast OVC014 21.6 19.5 88% 76.2 0.0
03 23:15 SE 7 16.09 Light Drizzle OVC014 21.6 19.5 88% 76.17 0.0
03 22:55 SE 11 16.09 Mostly Cloudy BKN016 21.8 19.3 86% 76.17 0.0
03 22:35 SE 15 16.09 Fair CLR 21.8 19.1 85% 76.17 0.0
03 22:15 SE 9 11.27 Thunderstorm in Vicinity CLR 22 19.2 84% 76.15 0.0
03 21:55 SE 6 16.09 Partly Cloudy SCT120 22 19.6 86% 76.17 0.0
03 21:35 SE 9 16.09 Mostly Cloudy BKN011 BKN120 22.1 19.7 86% 76.15 0.0
03 21:15 SE 9 16.09 Mostly Cloudy BKN011 BKN090 BKN110 22.5 19.7 84% 76.15 0.0
03 20:55 SE 7 16.09 Partly Cloudy SCT090 SCT110 22.5 19.8 85% 76.15 0.0
03 20:35 SE 7 16.09 Mostly Cloudy SCT075 BKN100 22.7 19.8 84% 76.15 0.0
03 20:15 SE 6 16.09 Mostly Cloudy BKN075 BKN100 23 20 83% 76.17 0.0
03 19:55 S 7 16.09 Fair CLR 23 20.1 84% 76.17 0.0
03 19:35 S 7 16.09 Partly Cloudy SCT026 23.5 20 81% 76.15 0.0
03 19:15 S 11 16.09 Mostly Cloudy BKN026 24 20 78% 24 76.15 0.0
03 18:55 SE 11 16.09 Mostly Cloudy BKN028 25 20 29.7 25 74% 26 76.12 0.0
03 18:35 SE 13 16.09 Overcast OVC030 26 19.7 68% 27 76.12 0.0
03 18:15 SE 13 16.09 Mostly Cloudy BKN028 26 19.8 69% 27 76.12 0.0
03 17:55 SE 13 16.09 Fair CLR 27 20 66% 29 76.1 0.0
03 17:35 SE 15 16.09 Mostly Cloudy SCT029 SCT035 BKN075 27.4 19.9 64% 29 76.12 0.0
03 17:15 SE 9 16.09 Mostly Cloudy SCT035 BKN070 BKN090 28 20 62% 30 76.07 0.0
03 16:55 SE 15 16.09 Mostly Cloudy SCT036 BKN060 BKN080 27.8 19.7 61% 29 76.07 0.0
03 16:35 SE 11 16.09 Mostly Cloudy SCT036 SCT043 BKN060 28.7 19.7 58% 30 76.07 0.0
03 16:15 SE 11 16.09 Overcast BKN036 OVC060 28.1 20.1 62% 30 76.07 0.0
03 15:55 SE 6 16.09 Overcast OVC033 28 20.1 62% 30 76.1 0.0
03 15:35 SE 6 16.09 Overcast BKN033 OVC075 28.7 19.3 57% 30 76.12 0.0
03 15:15 SE 13 16.09 Partly Cloudy SCT031 SCT075 29.3 19.4 55% 31 76.1 0.0
03 14:55 SE 11 16.09 Fair CLR 27.9 19.2 59% 29 76.07 0.0
03 14:35 E 9 16.09 Fair CLR 28.1 19.1 58% 29 76.07 0.0
03 14:15 SE 13 16.09 Fair CLR 28.6 19.1 56% 30 76.07 0.0
03 13:55 E 11 16.09 Fair CLR 28.1 19.2 59% 29 76.12 0.0
03 13:35 E 11 16.09 Partly Cloudy SCT025 27.9 18.9 58% 29 76.15 0.0
03 13:15 SE 11 16.09 Partly Cloudy SCT025 27.5 19.1 60% 29 76.15 0.0
03 12:55 SE 9 16.09 Partly Cloudy SCT050 SCT065 27 18.6 27.1 13.5 60% 28 76.2 0.0
03 12:35 E 9 16.09 Overcast SCT042 BKN050 OVC065 25.8 18.2 63% 27 76.2 0.0
03 12:15 E 9 16.09 Overcast SCT050 OVC065 24.8 17.4 64% 26 76.23 0.0
03 11:55 E 11 16.09 Overcast BKN050 OVC065 23.8 17.2 67% 76.23 0.0
03 11:35 E 11 16.09 Overcast SCT017 BKN050 OVC080 22.9 17.8 73% 76.25 0.0
03 11:15 Calm 16.09 Light Rain SCT017 OVC060 21.9 17.5 76% 76.25 0.0
03 10:55 SE 6 16.09 Overcast BKN065 OVC080 22.5 16.4 69% 76.25 0.0
03 10:35 SE 9 16.09 Mostly Cloudy SCT065 BKN080 BKN100 22.9 16.1 66% 76.25 0.0
03 10:15 SE 9 16.09 Partly Cloudy SCT065 SCT080 23.2 16.2 65% 76.23 0.0
03 09:55 SE 9 16.09 Partly Cloudy SCT065 SCT090 24.1 16.4 62% 25 76.23 0.0
03 09:35 SE 11 16.09 Partly Cloudy SCT090 24 16.1 61% 25 76.2 0.0
03 09:15 E 11 16.09 Partly Cloudy SCT090 23.6 16 63% 76.2 0.0
03 08:55 SE 7 16.09 Mostly Cloudy BKN090 22.1 16.3 70% 76.23 0.0
03 08:35 SE 9 16.09 Partly Cloudy SCT090 21.3 16.2 73% 76.23 0.0
03 08:15 SE 7 16.09 Partly Cloudy SCT090 20.9 16.5 76% 76.23 0.0
03 07:55 Calm 16.09 Fair CLR 19.8 16.7 82% 76.23 0.0
03 07:35 Calm 16.09 Fair CLR 16.4 16.4 100% 76.23 0.0
03 07:15 Calm 16.09 Fair CLR 14.6 14.6 100% 76.23 0.0
03 06:55 Calm 4.02 Fog/Mist CLR 13.6 13.6 14.5 12.6 100% 76.23 0.0
03 06:35 Calm 0.80 Fog VV005 12.7 12.7 100% 76.2 0.0
03 06:15 Calm 8.05 Fog/Mist CLR 12.6 12.6 100% 76.2 0.0
03 05:55 Calm 11.27 Fair CLR 12.6 12.6 100% 76.17 0.0
03 05:35 Calm 11.27 Fair CLR 12.8 12.8 100% 76.2 0.0
03 05:15 Calm 2.01 Fog/Mist VV007 13.1 13.1 100% 76.17 0.0
03 04:55 Calm 11.27 Fair CLR 13.2 13.2 100% 76.17 0.0
03 04:35 Calm 16.09 Fair CLR 13.3 13.3 100% 76.17 0.0
03 04:15 Calm 11.27 Fair CLR 13.5 13.5 100% 76.17 0.0
03 03:55 Calm 16.09 Fair CLR 13.6 13.6 100% 76.17 0.0
03 03:35 Calm 16.09 Partly Cloudy SCT090 14 14 100% 76.17 0.0
03 03:15 Calm 16.09 Mostly Cloudy BKN100 14.2 14.2 100% 76.2 0.0
03 02:55 Calm 16.09 Overcast OVC110 14.3 14.3 100% 76.17 0.0
03 02:35 Calm 16.09 Mostly Cloudy BKN110 14.1 14.1 100% 76.2 0.0
03 02:15 Calm 16.09 Mostly Cloudy BKN120 13.6 13.6 100% 76.2 0.0
03 01:55 Calm 16.09 Fair CLR 13.7 13.7 100% 76.2 0.0
03 01:35 Calm 16.09 Fair CLR 14.1 14.1 100% 76.2 0.0
03 01:15 Calm 16.09 Fair CLR 14.1 14.1 100% 76.2 0.0
03 00:55 Calm 16.09 Fair CLR 14.1 14.1 26 14.1 100% 76.2 0.0
03 00:35 Calm 16.09 Fair CLR 14.5 14.5 100% 76.2 0.0
03 00:15 Calm 16.09 Fair CLR 14.5 14.5 100% 76.2 0.0
02 23:55 Calm 16.09 Fair CLR 14.9 14.9 100% 76.2 0.0
02 23:35 Calm 16.09 Fair CLR 15.2 15.1 99% 76.2 0.0
02 23:15 Calm 16.09 Fair CLR 15.5 15.2 98% 76.17 0.0
02 22:55 Calm 16.09 Fair CLR 15.6 14.9 96% 76.2 0.0
02 22:35 Calm 16.09 Fair CLR 16 15.5 97% 76.2 0.0
02 22:15 Calm 16.09 Fair CLR 16.4 15.8 96% 76.17 0.0
02 21:55 Calm 16.09 Fair CLR 17.1 15.8 92% 76.17 0.0
02 21:35 Calm 16.09 Fair CLR 17.6 15.9 90% 76.17 0.0
02 21:15 Calm 16.09 Fair CLR 18.2 16 87% 76.15 0.0
02 20:55 Calm 16.09 Fair CLR 19.8 16 79% 76.15 0.0
02 20:35 NE 6 16.09 Fair CLR 22.1 15.6 67% 76.12 0.0
02 20:15 Calm 16.09 Fair CLR 23.1 15.6 63% 76.12 0.0
02 19:55 N 6 16.09 Fair CLR 23.5 15.6 61% 76.1 0.0
02 19:35 N 9 16.09 Fair CLR 24.5 15.5 57% 26 76.07 0.0
02 19:15 N 11 16.09 Fair CLR 25.3 15.8 56% 26 76.07 0.0
02 18:55 NE 11 16.09 Fair CLR 26.1 16 30.5 26.1 54% 27 76.07 0.0
02 18:35 NE 17 G 26 16.09 Fair CLR 27.1 16 51% 28 76.07 0.0
02 18:15 N 15 16.09 Fair CLR 28.6 15.9 46% 29 76.05 0.0
02 17:55 W 6 16.09 Fair CLR 29.7 14.6 40% 29 76.02 0.0
02 17:35 NW 6 16.09 Partly Cloudy SCT120 30 13.7 37% 29 76.02 0.0
02 17:15 Calm 16.09 Partly Cloudy SCT120 29.7 14.2 39% 29 76.05 0.0
02 16:55 Calm 16.09 Fair CLR 29.9 14.1 38% 29 76.02 0.0
02 16:35 Calm 16.09 Partly Cloudy SCT120 29.5 13.6 38% 29 76.05 0.0
02 16:15 W 7 16.09 Fair CLR 30 13.8 37% 29 76.05 0.0
02 15:55 NW 9 16.09 Fair CLR 29.9 13.8 37% 29 76.05 0.0
02 15:35 NW 7 16.09 Fair CLR 29.9 13.5 37% 29 76.05 0.0
02 15:15 NW 7 16.09 Fair CLR 29.8 13.6 37% 29 76.05 0.0
02 14:55 Calm 16.09 Fair CLR 29.5 13.4 37% 29 76.07 0.0
02 14:35 W 7 16.09 Fair CLR 29.2 13.5 38% 29 76.07 0.0
02 14:15 SE 6 16.09 Fair CLR 29.3 13.7 38% 29 76.07 0.0
02 13:55 NW 11 16.09 Fair CLR 28.8 14.4 41% 29 76.12 0.0
02 13:35 W 15 16.09 Fair CLR 28.8 14.3 41% 29 76.12 0.0
02 13:15 W 7 16.09 Fair CLR 28.2 13.9 42% 28 76.12 0.0
02 12:55 W 9 16.09 Fair CLR 28.3 15 28.3 16.7 44% 28 76.12 0.0
02 12:35 NW 9 16.09 Fair CLR 27.7 15.1 46% 28 76.12 0.0
02 12:15 W 9 16.09 Fair CLR 27.3 15.6 49% 28 76.1 0.0
02 11:55 W 7 16.09 Fair CLR 26.8 15.2 49% 27 76.12 0.0
02 11:35 W 7 16.09 Fair CLR 26.4 16.2 54% 27 76.12 0.0
02 11:15 W 7 16.09 Fair CLR 25.9 16.6 57% 27 76.12 0.0
02 10:55 W 7 16.09 Fair CLR 25.6 17.1 59% 27 76.15 0.0
02 10:35 SW 6 16.09 Fair CLR 25.1 17.6 63% 26 76.15 0.0
02 10:15 W 6 16.09 Fair CLR 24.3 17.4 65% 25 76.15 0.0
02 09:55 SW 7 16.09 Fair CLR 24 17.5 67% 25 76.17 0.0
02 09:35 W 6 16.09 Fair CLR 22.7 17.6 73% 76.17 0.0
02 09:15 SW 6 16.09 Fair CLR 21.5 17.8 80% 76.17 0.0
02 08:55 SW 7 16.09 Partly Cloudy SCT110 20 17.6 86% 76.2 0.0
02 08:35 SW 6 16.09 Partly Cloudy SCT110 19.4 17.7 90% 76.17 0.0
02 08:15 Calm 16.09 Partly Cloudy SCT110 18.6 17.1 91% 76.12 0.0
02 07:55 Calm 16.09 Partly Cloudy SCT110 18 17.1 95% 76.15 0.0
02 07:35 Calm 16.09 Fair CLR 17.4 17 98% 76.15 0.0
02 07:15 Calm 16.09 Mostly Cloudy BKN120 17 17 100% 76.12 0.0
02 06:35 Calm 16.09 Mostly Cloudy BKN110 16.7 16.7 100% 76.12 0.0
02 06:15 Calm 16.09 Mostly Cloudy BKN110 16.8 16.8 100% 76.12 0.0
02 05:55 Calm 16.09 Light Rain BKN090 OVC110 17.4 16.3 93% 76.2 0.0
02 05:35 Calm 16.09 Light Rain OVC100 17.7 15.9 89% 76.23 0.0
02 05:15 Calm 16.09 Light Rain BKN100 BKN120 17.5 15.6 89% 76.2 0.0
02 04:55 Calm 16.09 Light Rain SCT100 SCT120 16.1 15.6 97% 76.2 0.0
02 04:35 Calm 16.09 Partly Cloudy SCT120 16.1 15.5 96% 76.15 0.0
02 04:15 Calm 16.09 Mostly Cloudy BKN120 15.7 15.4 98% 76.15 0.0
02 03:55 Calm 16.09 Partly Cloudy SCT110 15.9 15.3 96% 76.15 0.0
02 03:35 Calm 16.09 Mostly Cloudy BKN110 16.3 15.2 93% 76.12 0.0
02 03:15 Calm 16.09 Mostly Cloudy BKN120 16 15.4 96% 76.12 0.0
02 02:55 Calm 16.09 Partly Cloudy SCT120 15.7 15.1 96% 76.12 0.0
02 02:35 Calm 16.09 Partly Cloudy SCT120 15.3 15 98% 76.12 0.0
02 02:15 Calm 16.09 Fair CLR 15.2 14.7 97% 76.1 0.0
02 01:55 Calm 16.09 Fair CLR 15.5 14.6 94% 76.12 0.0
02 01:35 Calm 16.09 Fair CLR 15.4 14.5 94% 76.12 0.0
02 01:15 Calm 16.09 Fair CLR 14.7 14.5 99% 76.15 0.0
02 00:55 Calm 16.09 Fair CLR 15.1 14.4 27.5 14.2 96% 76.15 0.0
02 00:35 Calm 16.09 Fair CLR 14.9 14.3 96% 76.12 0.0
02 00:15 Calm 16.09 Fair CLR 14.2 13.6 96% 76.15 0.0
01 23:55 Calm 16.09 Fair CLR 14.5 14 97% 76.15 0.0
01 23:35 Calm 16.09 Fair CLR 14.8 14 95% 76.12 0.0
01 23:15 Calm 16.09 Fair CLR 14.6 14.1 97% 76.12 0.0
01 22:55 Calm 16.09 Fair CLR 15.4 14.5 94% 76.12 0.0
01 22:35 Calm 16.09 Fair CLR 15.7 14.2 91% 76.12 0.0
01 22:15 Calm 16.09 Fair CLR 16 14.5 91% 76.15 0.0
01 21:55 Calm 16.09 Fair CLR 16.2 14.7 91% 76.12 0.0
01 21:35 Calm 16.09 Fair CLR 16.5 14.8 90% 76.12 0.0
01 21:15 Calm 16.09 Fair CLR 17.7 14.5 82% 76.12 0.0
01 20:55 Calm 16.09 Fair CLR 18 15 83% 76.07 0.0
01 20:35 Calm 16.09 Fair CLR 19.3 15 76% 76.07 0.0
Date Time (cdt) Wind (kph) Vis. (km) Weather Sky Cond. Air Dwpt Max. Min. Relative Humidity Wind Chill (°C) Heat Index (°C) altimeter (cm) sea level (mb) 1 hr 3 hr 6 hr
6 hour
Temperature (ºC) Pressure Precipitation (cm)